sensor_id;sensor_type;location;lat;lon;timestamp;P1;durP1;ratioP1;P2;durP2;ratioP2
55202;SDS011;41077;52.956;6.796;2022-11-21T00:01:14;29.40;;;20.83;;
55202;SDS011;41077;52.956;6.796;2022-11-21T00:03:43;31.05;;;20.60;;
55202;SDS011;41077;52.956;6.796;2022-11-21T00:06:09;27.73;;;20.55;;
55202;SDS011;41077;52.956;6.796;2022-11-21T00:08:34;31.27;;;21.08;;
55202;SDS011;41077;52.956;6.796;2022-11-21T00:11:00;29.30;;;20.58;;
55202;SDS011;41077;52.956;6.796;2022-11-21T00:13:26;35.35;;;22.85;;
55202;SDS011;41077;52.956;6.796;2022-11-21T00:15:51;28.80;;;20.80;;
55202;SDS011;41077;52.956;6.796;2022-11-21T00:18:17;27.60;;;19.40;;
55202;SDS011;41077;52.956;6.796;2022-11-21T00:20:43;30.08;;;20.75;;
55202;SDS011;41077;52.956;6.796;2022-11-21T00:23:09;31.60;;;21.13;;
55202;SDS011;41077;52.956;6.796;2022-11-21T00:25:35;27.85;;;20.38;;
55202;SDS011;41077;52.956;6.796;2022-11-21T00:28:00;30.40;;;21.05;;
55202;SDS011;41077;52.956;6.796;2022-11-21T00:30:26;35.17;;;21.13;;
55202;SDS011;41077;52.956;6.796;2022-11-21T00:32:52;30.15;;;20.83;;
55202;SDS011;41077;52.956;6.796;2022-11-21T00:35:18;32.08;;;20.85;;
55202;SDS011;41077;52.956;6.796;2022-11-21T00:37:43;31.02;;;22.95;;
55202;SDS011;41077;52.956;6.796;2022-11-21T00:40:09;31.77;;;21.98;;
55202;SDS011;41077;52.956;6.796;2022-11-21T00:42:35;32.50;;;20.98;;
55202;SDS011;41077;52.956;6.796;2022-11-21T00:45:01;38.15;;;23.10;;
55202;SDS011;41077;52.956;6.796;2022-11-21T00:47:27;30.77;;;21.17;;
55202;SDS011;41077;52.956;6.796;2022-11-21T00:49:53;31.77;;;21.90;;
55202;SDS011;41077;52.956;6.796;2022-11-21T00:52:18;31.17;;;22.13;;
55202;SDS011;41077;52.956;6.796;2022-11-21T00:54:44;33.42;;;23.83;;
55202;SDS011;41077;52.956;6.796;2022-11-21T00:57:09;31.02;;;21.55;;
55202;SDS011;41077;52.956;6.796;2022-11-21T00:59:35;27.75;;;19.83;;
55202;SDS011;41077;52.956;6.796;2022-11-21T01:02:01;35.17;;;22.95;;
55202;SDS011;41077;52.956;6.796;2022-11-21T01:04:30;33.00;;;22.75;;
55202;SDS011;41077;52.956;6.796;2022-11-21T01:06:57;28.80;;;20.42;;
55202;SDS011;41077;52.956;6.796;2022-11-21T01:09:23;31.60;;;22.10;;
55202;SDS011;41077;52.956;6.796;2022-11-21T01:11:48;31.92;;;22.00;;
55202;SDS011;41077;52.956;6.796;2022-11-21T01:14:15;29.17;;;20.90;;
55202;SDS011;41077;52.956;6.796;2022-11-21T01:16:40;34.55;;;22.70;;
55202;SDS011;41077;52.956;6.796;2022-11-21T01:19:06;35.65;;;22.35;;
55202;SDS011;41077;52.956;6.796;2022-11-21T01:21:32;34.03;;;22.83;;
55202;SDS011;41077;52.956;6.796;2022-11-21T01:23:58;30.58;;;21.60;;
55202;SDS011;41077;52.956;6.796;2022-11-21T01:26:25;32.25;;;22.33;;
55202;SDS011;41077;52.956;6.796;2022-11-21T01:28:52;30.77;;;21.08;;
55202;SDS011;41077;52.956;6.796;2022-11-21T01:31:19;27.95;;;21.05;;
55202;SDS011;41077;52.956;6.796;2022-11-21T01:33:49;31.30;;;22.33;;
55202;SDS011;41077;52.956;6.796;2022-11-21T01:36:16;39.40;;;22.60;;
55202;SDS011;41077;52.956;6.796;2022-11-21T01:38:50;35.75;;;23.52;;
55202;SDS011;41077;52.956;6.796;2022-11-21T01:41:21;33.15;;;20.33;;
55202;SDS011;41077;52.956;6.796;2022-11-21T01:43:52;30.08;;;21.15;;
55202;SDS011;41077;52.956;6.796;2022-11-21T01:46:19;31.88;;;22.70;;
55202;SDS011;41077;52.956;6.796;2022-11-21T01:53:55;29.33;;;20.45;;
55202;SDS011;41077;52.956;6.796;2022-11-21T01:56:43;28.90;;;20.45;;
55202;SDS011;41077;52.956;6.796;2022-11-21T01:59:20;31.05;;;20.70;;
55202;SDS011;41077;52.956;6.796;2022-11-21T02:01:51;29.65;;;21.27;;
55202;SDS011;41077;52.956;6.796;2022-11-21T02:04:18;31.63;;;20.38;;
55202;SDS011;41077;52.956;6.796;2022-11-21T02:06:46;32.13;;;22.90;;
55202;SDS011;41077;52.956;6.796;2022-11-21T02:09:12;33.55;;;22.73;;
55202;SDS011;41077;52.956;6.796;2022-11-21T02:14:06;33.40;;;21.65;;
55202;SDS011;41077;52.956;6.796;2022-11-21T02:16:32;34.60;;;21.77;;
55202;SDS011;41077;52.956;6.796;2022-11-21T02:18:59;29.40;;;22.33;;
55202;SDS011;41077;52.956;6.796;2022-11-21T02:25:12;31.75;;;22.40;;
55202;SDS011;41077;52.956;6.796;2022-11-21T02:27:05;29.08;;;21.23;;
55202;SDS011;41077;52.956;6.796;2022-11-21T02:29:31;38.05;;;22.58;;
55202;SDS011;41077;52.956;6.796;2022-11-21T02:32:03;32.45;;;22.33;;
55202;SDS011;41077;52.956;6.796;2022-11-21T02:34:29;37.97;;;23.25;;
55202;SDS011;41077;52.956;6.796;2022-11-21T02:36:56;31.23;;;21.88;;
55202;SDS011;41077;52.956;6.796;2022-11-21T02:39:22;29.45;;;21.23;;
55202;SDS011;41077;52.956;6.796;2022-11-21T02:42:04;31.05;;;21.40;;
55202;SDS011;41077;52.956;6.796;2022-11-21T02:45:25;34.25;;;23.27;;
55202;SDS011;41077;52.956;6.796;2022-11-21T02:47:33;31.40;;;21.42;;
55202;SDS011;41077;52.956;6.796;2022-11-21T02:50:20;35.70;;;23.00;;
55202;SDS011;41077;52.956;6.796;2022-11-21T02:52:49;35.17;;;23.45;;
55202;SDS011;41077;52.956;6.796;2022-11-21T02:55:15;37.03;;;23.55;;
55202;SDS011;41077;52.956;6.796;2022-11-21T02:57:41;39.22;;;22.92;;
55202;SDS011;41077;52.956;6.796;2022-11-21T03:00:07;33.78;;;21.67;;
55202;SDS011;41077;52.956;6.796;2022-11-21T03:02:34;35.47;;;22.13;;
55202;SDS011;41077;52.956;6.796;2022-11-21T03:05:00;34.58;;;21.75;;
55202;SDS011;41077;52.956;6.796;2022-11-21T03:07:26;34.20;;;21.20;;
55202;SDS011;41077;52.956;6.796;2022-11-21T03:09:52;37.88;;;22.85;;
55202;SDS011;41077;52.956;6.796;2022-11-21T03:12:17;40.13;;;24.85;;
55202;SDS011;41077;52.956;6.796;2022-11-21T03:14:43;35.85;;;22.02;;
55202;SDS011;41077;52.956;6.796;2022-11-21T03:17:09;37.10;;;23.17;;
55202;SDS011;41077;52.956;6.796;2022-11-21T03:19:34;39.42;;;22.50;;
55202;SDS011;41077;52.956;6.796;2022-11-21T03:22:00;34.63;;;22.85;;
55202;SDS011;41077;52.956;6.796;2022-11-21T03:24:26;37.33;;;22.85;;
55202;SDS011;41077;52.956;6.796;2022-11-21T03:26:51;32.25;;;23.42;;
55202;SDS011;41077;52.956;6.796;2022-11-21T03:29:17;35.38;;;20.92;;
55202;SDS011;41077;52.956;6.796;2022-11-21T03:31:43;31.67;;;21.65;;
55202;SDS011;41077;52.956;6.796;2022-11-21T03:34:08;29.17;;;20.15;;
55202;SDS011;41077;52.956;6.796;2022-11-21T03:36:34;33.38;;;23.38;;
55202;SDS011;41077;52.956;6.796;2022-11-21T03:39:00;31.25;;;21.73;;
55202;SDS011;41077;52.956;6.796;2022-11-21T03:41:26;34.42;;;22.73;;
55202;SDS011;41077;52.956;6.796;2022-11-21T03:44:05;35.90;;;23.20;;
55202;SDS011;41077;52.956;6.796;2022-11-21T03:46:38;34.97;;;21.63;;
55202;SDS011;41077;52.956;6.796;2022-11-21T03:49:08;34.17;;;20.67;;
55202;SDS011;41077;52.956;6.796;2022-11-21T03:51:35;36.03;;;23.00;;
55202;SDS011;41077;52.956;6.796;2022-11-21T03:54:02;32.22;;;22.13;;
55202;SDS011;41077;52.956;6.796;2022-11-21T03:56:28;32.45;;;22.33;;
55202;SDS011;41077;52.956;6.796;2022-11-21T03:58:54;37.88;;;23.23;;
55202;SDS011;41077;52.956;6.796;2022-11-21T04:01:20;34.88;;;21.90;;
55202;SDS011;41077;52.956;6.796;2022-11-21T04:03:46;36.88;;;23.98;;
55202;SDS011;41077;52.956;6.796;2022-11-21T04:06:13;37.97;;;22.88;;
55202;SDS011;41077;52.956;6.796;2022-11-21T04:08:40;38.70;;;22.42;;
55202;SDS011;41077;52.956;6.796;2022-11-21T04:11:06;31.90;;;21.98;;
55202;SDS011;41077;52.956;6.796;2022-11-21T04:13:32;31.27;;;21.77;;
55202;SDS011;41077;52.956;6.796;2022-11-21T04:15:58;30.92;;;22.15;;
55202;SDS011;41077;52.956;6.796;2022-11-21T04:18:24;36.90;;;22.80;;
55202;SDS011;41077;52.956;6.796;2022-11-21T04:20:56;36.13;;;23.02;;
55202;SDS011;41077;52.956;6.796;2022-11-21T04:23:22;36.05;;;23.45;;
55202;SDS011;41077;52.956;6.796;2022-11-21T04:25:48;33.80;;;23.88;;
55202;SDS011;41077;52.956;6.796;2022-11-21T04:28:14;32.22;;;22.63;;
55202;SDS011;41077;52.956;6.796;2022-11-21T04:30:39;30.08;;;21.75;;
55202;SDS011;41077;52.956;6.796;2022-11-21T04:33:05;34.42;;;23.40;;
55202;SDS011;41077;52.956;6.796;2022-11-21T04:35:31;34.80;;;23.10;;
55202;SDS011;41077;52.956;6.796;2022-11-21T04:37:56;40.00;;;23.48;;
55202;SDS011;41077;52.956;6.796;2022-11-21T04:40:22;35.40;;;23.15;;
55202;SDS011;41077;52.956;6.796;2022-11-21T04:42:48;39.67;;;23.02;;
55202;SDS011;41077;52.956;6.796;2022-11-21T04:45:14;36.83;;;21.92;;
55202;SDS011;41077;52.956;6.796;2022-11-21T04:47:41;36.35;;;22.23;;
55202;SDS011;41077;52.956;6.796;2022-11-21T04:50:09;36.83;;;21.98;;
55202;SDS011;41077;52.956;6.796;2022-11-21T04:52:35;38.08;;;23.55;;
55202;SDS011;41077;52.956;6.796;2022-11-21T04:55:01;35.42;;;22.83;;
55202;SDS011;41077;52.956;6.796;2022-11-21T04:57:28;38.83;;;23.38;;
55202;SDS011;41077;52.956;6.796;2022-11-21T04:59:54;36.67;;;24.15;;
55202;SDS011;41077;52.956;6.796;2022-11-21T05:02:21;35.75;;;23.60;;
55202;SDS011;41077;52.956;6.796;2022-11-21T05:04:46;36.92;;;22.92;;
55202;SDS011;41077;52.956;6.796;2022-11-21T05:07:12;38.45;;;24.05;;
55202;SDS011;41077;52.956;6.796;2022-11-21T05:09:39;35.30;;;22.85;;
55202;SDS011;41077;52.956;6.796;2022-11-21T05:12:05;35.33;;;21.88;;
55202;SDS011;41077;52.956;6.796;2022-11-21T05:14:49;37.72;;;24.55;;
55202;SDS011;41077;52.956;6.796;2022-11-21T05:17:15;39.22;;;23.55;;
55202;SDS011;41077;52.956;6.796;2022-11-21T05:19:41;30.58;;;22.33;;
55202;SDS011;41077;52.956;6.796;2022-11-21T05:22:06;41.10;;;24.85;;
55202;SDS011;41077;52.956;6.796;2022-11-21T05:24:32;38.97;;;23.90;;
55202;SDS011;41077;52.956;6.796;2022-11-21T05:26:58;40.45;;;23.52;;
55202;SDS011;41077;52.956;6.796;2022-11-21T05:29:23;34.78;;;22.88;;
55202;SDS011;41077;52.956;6.796;2022-11-21T05:31:49;37.35;;;23.67;;
55202;SDS011;41077;52.956;6.796;2022-11-21T05:34:15;35.60;;;21.65;;
55202;SDS011;41077;52.956;6.796;2022-11-21T05:36:40;30.63;;;21.23;;
55202;SDS011;41077;52.956;6.796;2022-11-21T05:39:06;33.47;;;22.30;;
55202;SDS011;41077;52.956;6.796;2022-11-21T05:41:31;33.85;;;21.77;;
55202;SDS011;41077;52.956;6.796;2022-11-21T05:43:57;31.50;;;20.90;;
55202;SDS011;41077;52.956;6.796;2022-11-21T05:46:23;30.63;;;21.08;;
55202;SDS011;41077;52.956;6.796;2022-11-21T05:48:50;44.55;;;21.83;;
55202;SDS011;41077;52.956;6.796;2022-11-21T05:51:17;37.22;;;22.77;;
55202;SDS011;41077;52.956;6.796;2022-11-21T05:53:45;36.65;;;24.60;;
55202;SDS011;41077;52.956;6.796;2022-11-21T05:56:13;38.03;;;23.73;;
55202;SDS011;41077;52.956;6.796;2022-11-21T05:58:41;36.53;;;24.10;;
55202;SDS011;41077;52.956;6.796;2022-11-21T06:01:07;37.10;;;24.38;;
55202;SDS011;41077;52.956;6.796;2022-11-21T06:03:35;37.97;;;25.35;;
55202;SDS011;41077;52.956;6.796;2022-11-21T06:06:09;41.95;;;24.55;;
55202;SDS011;41077;52.956;6.796;2022-11-21T06:08:38;42.17;;;26.73;;
55202;SDS011;41077;52.956;6.796;2022-11-21T06:11:05;39.75;;;26.27;;
55202;SDS011;41077;52.956;6.796;2022-11-21T06:13:32;37.50;;;25.40;;
55202;SDS011;41077;52.956;6.796;2022-11-21T06:15:59;48.80;;;28.05;;
55202;SDS011;41077;52.956;6.796;2022-11-21T06:18:31;47.38;;;29.08;;
55202;SDS011;41077;52.956;6.796;2022-11-21T06:21:02;42.50;;;28.85;;
55202;SDS011;41077;52.956;6.796;2022-11-21T06:23:33;41.05;;;26.52;;
55202;SDS011;41077;52.956;6.796;2022-11-21T06:26:00;42.85;;;26.10;;
55202;SDS011;41077;52.956;6.796;2022-11-21T06:28:29;39.58;;;25.40;;
55202;SDS011;41077;52.956;6.796;2022-11-21T06:31:01;46.20;;;26.23;;
55202;SDS011;41077;52.956;6.796;2022-11-21T06:33:34;47.28;;;25.15;;
55202;SDS011;41077;52.956;6.796;2022-11-21T06:36:04;39.90;;;26.83;;
55202;SDS011;41077;52.956;6.796;2022-11-21T06:38:32;44.33;;;25.65;;
55202;SDS011;41077;52.956;6.796;2022-11-21T06:40:57;40.17;;;24.25;;
55202;SDS011;41077;52.956;6.796;2022-11-21T06:43:27;40.42;;;25.35;;
55202;SDS011;41077;52.956;6.796;2022-11-21T06:45:54;45.45;;;25.98;;
55202;SDS011;41077;52.956;6.796;2022-11-21T06:48:20;41.78;;;26.02;;
55202;SDS011;41077;52.956;6.796;2022-11-21T06:50:46;43.35;;;26.30;;
55202;SDS011;41077;52.956;6.796;2022-11-21T06:53:12;47.35;;;25.95;;
55202;SDS011;41077;52.956;6.796;2022-11-21T06:55:38;36.45;;;23.75;;
55202;SDS011;41077;52.956;6.796;2022-11-21T06:58:03;42.55;;;26.48;;
55202;SDS011;41077;52.956;6.796;2022-11-21T07:00:29;43.35;;;26.15;;
55202;SDS011;41077;52.956;6.796;2022-11-21T07:03:01;42.88;;;27.27;;
55202;SDS011;41077;52.956;6.796;2022-11-21T07:05:27;36.85;;;25.15;;
55202;SDS011;41077;52.956;6.796;2022-11-21T07:07:57;37.90;;;25.63;;
55202;SDS011;41077;52.956;6.796;2022-11-21T07:10:23;38.70;;;25.25;;
55202;SDS011;41077;52.956;6.796;2022-11-21T07:12:49;38.83;;;22.98;;
55202;SDS011;41077;52.956;6.796;2022-11-21T07:15:33;41.85;;;26.08;;
55202;SDS011;41077;52.956;6.796;2022-11-21T07:18:00;38.50;;;22.35;;
55202;SDS011;41077;52.956;6.796;2022-11-21T07:20:26;37.35;;;23.52;;
55202;SDS011;41077;52.956;6.796;2022-11-21T07:22:54;39.95;;;24.48;;
55202;SDS011;41077;52.956;6.796;2022-11-21T07:25:20;40.33;;;26.77;;
55202;SDS011;41077;52.956;6.796;2022-11-21T07:27:46;41.00;;;25.83;;
55202;SDS011;41077;52.956;6.796;2022-11-21T07:30:12;39.60;;;24.88;;
55202;SDS011;41077;52.956;6.796;2022-11-21T07:32:38;39.13;;;24.40;;
55202;SDS011;41077;52.956;6.796;2022-11-21T07:35:04;38.90;;;24.95;;
55202;SDS011;41077;52.956;6.796;2022-11-21T07:37:30;37.30;;;23.92;;
55202;SDS011;41077;52.956;6.796;2022-11-21T07:39:56;42.45;;;24.55;;
55202;SDS011;41077;52.956;6.796;2022-11-21T07:42:22;44.47;;;25.98;;
55202;SDS011;41077;52.956;6.796;2022-11-21T07:44:47;46.80;;;26.80;;
55202;SDS011;41077;52.956;6.796;2022-11-21T07:47:13;42.42;;;27.50;;
55202;SDS011;41077;52.956;6.796;2022-11-21T07:49:39;43.38;;;25.52;;
55202;SDS011;41077;52.956;6.796;2022-11-21T07:52:04;43.00;;;25.55;;
55202;SDS011;41077;52.956;6.796;2022-11-21T07:54:30;44.40;;;26.60;;
55202;SDS011;41077;52.956;6.796;2022-11-21T07:56:56;44.38;;;26.58;;
55202;SDS011;41077;52.956;6.796;2022-11-21T07:59:21;43.45;;;25.48;;
55202;SDS011;41077;52.956;6.796;2022-11-21T08:01:49;41.08;;;25.02;;
55202;SDS011;41077;52.956;6.796;2022-11-21T08:04:16;37.38;;;26.05;;
55202;SDS011;41077;52.956;6.796;2022-11-21T08:06:42;39.85;;;24.50;;
55202;SDS011;41077;52.956;6.796;2022-11-21T08:09:07;39.38;;;25.58;;
55202;SDS011;41077;52.956;6.796;2022-11-21T08:11:34;43.65;;;26.20;;
55202;SDS011;41077;52.956;6.796;2022-11-21T08:14:00;48.30;;;27.88;;
55202;SDS011;41077;52.956;6.796;2022-11-21T08:16:26;45.90;;;27.42;;
55202;SDS011;41077;52.956;6.796;2022-11-21T08:18:54;44.53;;;26.95;;
55202;SDS011;41077;52.956;6.796;2022-11-21T08:21:20;41.20;;;26.67;;
55202;SDS011;41077;52.956;6.796;2022-11-21T08:23:46;41.10;;;27.08;;
55202;SDS011;41077;52.956;6.796;2022-11-21T08:26:12;42.38;;;27.10;;
55202;SDS011;41077;52.956;6.796;2022-11-21T08:28:37;39.75;;;27.88;;
55202;SDS011;41077;52.956;6.796;2022-11-21T08:31:04;44.97;;;27.65;;
55202;SDS011;41077;52.956;6.796;2022-11-21T08:33:30;45.47;;;28.45;;
55202;SDS011;41077;52.956;6.796;2022-11-21T08:35:56;42.42;;;26.60;;
55202;SDS011;41077;52.956;6.796;2022-11-21T08:38:21;45.80;;;27.02;;
55202;SDS011;41077;52.956;6.796;2022-11-21T08:40:47;42.58;;;27.77;;
55202;SDS011;41077;52.956;6.796;2022-11-21T08:43:33;48.75;;;27.83;;
55202;SDS011;41077;52.956;6.796;2022-11-21T08:45:58;48.22;;;29.85;;
55202;SDS011;41077;52.956;6.796;2022-11-21T08:48:24;44.53;;;27.38;;
55202;SDS011;41077;52.956;6.796;2022-11-21T08:50:49;41.80;;;26.30;;
55202;SDS011;41077;52.956;6.796;2022-11-21T08:53:15;43.10;;;28.25;;
55202;SDS011;41077;52.956;6.796;2022-11-21T08:55:41;47.95;;;29.48;;
55202;SDS011;41077;52.956;6.796;2022-11-21T08:58:06;45.42;;;28.67;;
55202;SDS011;41077;52.956;6.796;2022-11-21T09:00:33;45.33;;;30.10;;
55202;SDS011;41077;52.956;6.796;2022-11-21T09:03:02;46.97;;;30.23;;
55202;SDS011;41077;52.956;6.796;2022-11-21T09:05:29;46.08;;;28.35;;
55202;SDS011;41077;52.956;6.796;2022-11-21T09:07:55;46.72;;;30.95;;
55202;SDS011;41077;52.956;6.796;2022-11-21T09:10:21;49.30;;;30.27;;
55202;SDS011;41077;52.956;6.796;2022-11-21T09:12:47;44.50;;;30.63;;
55202;SDS011;41077;52.956;6.796;2022-11-21T09:15:13;49.60;;;31.58;;
55202;SDS011;41077;52.956;6.796;2022-11-21T09:18:00;48.90;;;29.55;;
55202;SDS011;41077;52.956;6.796;2022-11-21T09:20:33;45.90;;;30.48;;
55202;SDS011;41077;52.956;6.796;2022-11-21T09:23:04;43.15;;;29.13;;
55202;SDS011;41077;52.956;6.796;2022-11-21T09:25:30;52.80;;;30.50;;
55202;SDS011;41077;52.956;6.796;2022-11-21T09:28:03;46.53;;;28.55;;
55202;SDS011;41077;52.956;6.796;2022-11-21T09:30:30;46.03;;;28.25;;
55202;SDS011;41077;52.956;6.796;2022-11-21T09:33:02;43.95;;;28.63;;
55202;SDS011;41077;52.956;6.796;2022-11-21T09:35:29;45.75;;;28.77;;
55202;SDS011;41077;52.956;6.796;2022-11-21T09:37:55;49.67;;;29.83;;
55202;SDS011;41077;52.956;6.796;2022-11-21T09:40:21;48.47;;;28.77;;
55202;SDS011;41077;52.956;6.796;2022-11-21T09:45:48;42.97;;;30.08;;
55202;SDS011;41077;52.956;6.796;2022-11-21T09:48:16;42.10;;;28.88;;
55202;SDS011;41077;52.956;6.796;2022-11-21T09:51:03;48.03;;;29.30;;
55202;SDS011;41077;52.956;6.796;2022-11-21T09:53:35;49.83;;;29.38;;
55202;SDS011;41077;52.956;6.796;2022-11-21T09:56:11;44.45;;;29.38;;
55202;SDS011;41077;52.956;6.796;2022-11-21T09:58:44;45.00;;;28.52;;
55202;SDS011;41077;52.956;6.796;2022-11-21T10:01:27;45.47;;;27.30;;
55202;SDS011;41077;52.956;6.796;2022-11-21T10:03:53;49.67;;;29.10;;
55202;SDS011;41077;52.956;6.796;2022-11-21T10:08:50;46.53;;;29.63;;
55202;SDS011;41077;52.956;6.796;2022-11-21T10:20:02;42.90;;;27.00;;
55202;SDS011;41077;52.956;6.796;2022-11-21T10:22:51;42.88;;;28.70;;
55202;SDS011;41077;52.956;6.796;2022-11-21T10:25:38;41.20;;;27.58;;
55202;SDS011;41077;52.956;6.796;2022-11-21T10:30:43;46.88;;;28.98;;
55202;SDS011;41077;52.956;6.796;2022-11-21T10:33:14;36.42;;;25.67;;
55202;SDS011;41077;52.956;6.796;2022-11-21T10:35:50;45.40;;;26.77;;
55202;SDS011;41077;52.956;6.796;2022-11-21T10:38:20;40.70;;;26.27;;
55202;SDS011;41077;52.956;6.796;2022-11-21T10:40:49;41.25;;;27.60;;
55202;SDS011;41077;52.956;6.796;2022-11-21T10:46:22;38.92;;;25.92;;
55202;SDS011;41077;52.956;6.796;2022-11-21T10:48:55;41.35;;;27.75;;
55202;SDS011;41077;52.956;6.796;2022-11-21T10:54:20;43.72;;;26.05;;
55202;SDS011;41077;52.956;6.796;2022-11-21T10:56:59;40.92;;;28.25;;
55202;SDS011;41077;52.956;6.796;2022-11-21T10:59:38;44.20;;;27.63;;
55202;SDS011;41077;52.956;6.796;2022-11-21T11:04:38;40.25;;;27.27;;
55202;SDS011;41077;52.956;6.796;2022-11-21T11:10:21;44.05;;;29.67;;
55202;SDS011;41077;52.956;6.796;2022-11-21T11:12:47;45.65;;;28.52;;
55202;SDS011;41077;52.956;6.796;2022-11-21T11:15:33;37.03;;;24.70;;
55202;SDS011;41077;52.956;6.796;2022-11-21T11:18:01;38.80;;;26.63;;
55202;SDS011;41077;52.956;6.796;2022-11-21T11:22:53;36.53;;;23.88;;
55202;SDS011;41077;52.956;6.796;2022-11-21T11:25:19;34.75;;;22.40;;
55202;SDS011;41077;52.956;6.796;2022-11-21T11:27:46;32.65;;;22.63;;
55202;SDS011;41077;52.956;6.796;2022-11-21T11:30:16;33.03;;;21.92;;
55202;SDS011;41077;52.956;6.796;2022-11-21T11:32:42;35.38;;;23.15;;
55202;SDS011;41077;52.956;6.796;2022-11-21T11:37:37;37.08;;;24.65;;
55202;SDS011;41077;52.956;6.796;2022-11-21T11:49:03;33.17;;;22.33;;
55202;SDS011;41077;52.956;6.796;2022-11-21T11:51:36;32.45;;;21.17;;
55202;SDS011;41077;52.956;6.796;2022-11-21T11:54:11;31.48;;;20.13;;
55202;SDS011;41077;52.956;6.796;2022-11-21T11:56:46;33.10;;;21.45;;
55202;SDS011;41077;52.956;6.796;2022-11-21T11:59:23;38.25;;;21.77;;
55202;SDS011;41077;52.956;6.796;2022-11-21T12:04:28;35.35;;;22.63;;
55202;SDS011;41077;52.956;6.796;2022-11-21T12:09:37;35.30;;;23.10;;
55202;SDS011;41077;52.956;6.796;2022-11-21T12:12:27;31.75;;;22.38;;
55202;SDS011;41077;52.956;6.796;2022-11-21T12:15:15;32.55;;;22.13;;
55202;SDS011;41077;52.956;6.796;2022-11-21T12:21:04;32.65;;;20.33;;
55202;SDS011;41077;52.956;6.796;2022-11-21T12:23:36;29.80;;;20.55;;
55202;SDS011;41077;52.956;6.796;2022-11-21T12:34:51;27.80;;;19.27;;
55202;SDS011;41077;52.956;6.796;2022-11-21T12:43:58;28.92;;;19.27;;
55202;SDS011;41077;52.956;6.796;2022-11-21T12:46:36;29.25;;;19.67;;
55202;SDS011;41077;52.956;6.796;2022-11-21T12:49:18;26.65;;;19.23;;
55202;SDS011;41077;52.956;6.796;2022-11-21T12:52:12;31.17;;;19.13;;
55202;SDS011;41077;52.956;6.796;2022-11-21T12:55:07;26.73;;;18.65;;
55202;SDS011;41077;52.956;6.796;2022-11-21T12:57:38;31.90;;;20.45;;
55202;SDS011;41077;52.956;6.796;2022-11-21T13:00:22;31.88;;;20.02;;
55202;SDS011;41077;52.956;6.796;2022-11-21T13:05:26;26.13;;;19.45;;
55202;SDS011;41077;52.956;6.796;2022-11-21T13:08:05;27.33;;;17.98;;
55202;SDS011;41077;52.956;6.796;2022-11-21T13:10:34;29.40;;;19.48;;
55202;SDS011;41077;52.956;6.796;2022-11-21T13:15:38;28.65;;;21.17;;
55202;SDS011;41077;52.956;6.796;2022-11-21T13:20:47;28.88;;;20.92;;
55202;SDS011;41077;52.956;6.796;2022-11-21T13:28:50;27.63;;;20.08;;
55202;SDS011;41077;52.956;6.796;2022-11-21T13:31:31;27.42;;;19.30;;
55202;SDS011;41077;52.956;6.796;2022-11-21T13:33:58;27.35;;;19.02;;
55202;SDS011;41077;52.956;6.796;2022-11-21T14:09:51;39.17;;;25.55;;
55202;SDS011;41077;52.956;6.796;2022-11-21T14:12:36;35.47;;;23.42;;
55202;SDS011;41077;52.956;6.796;2022-11-21T14:20:00;40.28;;;25.70;;
55202;SDS011;41077;52.956;6.796;2022-11-21T14:25:06;44.20;;;28.02;;
55202;SDS011;41077;52.956;6.796;2022-11-21T14:27:36;40.47;;;27.50;;
55202;SDS011;41077;52.956;6.796;2022-11-21T14:30:04;45.78;;;29.15;;
55202;SDS011;41077;52.956;6.796;2022-11-21T14:32:30;44.58;;;29.27;;
55202;SDS011;41077;52.956;6.796;2022-11-21T14:37:44;40.53;;;27.65;;
55202;SDS011;41077;52.956;6.796;2022-11-21T14:40:11;44.67;;;28.98;;
55202;SDS011;41077;52.956;6.796;2022-11-21T14:42:43;46.15;;;29.17;;
55202;SDS011;41077;52.956;6.796;2022-11-21T14:47:51;48.03;;;29.95;;
55202;SDS011;41077;52.956;6.796;2022-11-21T14:50:24;45.95;;;29.88;;
55202;SDS011;41077;52.956;6.796;2022-11-21T14:52:58;53.30;;;32.40;;
55202;SDS011;41077;52.956;6.796;2022-11-21T14:55:28;49.50;;;29.40;;
55202;SDS011;41077;52.956;6.796;2022-11-21T14:57:56;48.00;;;31.80;;
55202;SDS011;41077;52.956;6.796;2022-11-21T15:00:25;51.70;;;31.40;;
55202;SDS011;41077;52.956;6.796;2022-11-21T15:02:53;60.05;;;32.80;;
55202;SDS011;41077;52.956;6.796;2022-11-21T15:05:26;55.00;;;34.60;;
55202;SDS011;41077;52.956;6.796;2022-11-21T15:07:54;59.20;;;32.67;;
55202;SDS011;41077;52.956;6.796;2022-11-21T15:10:22;58.60;;;34.35;;
55202;SDS011;41077;52.956;6.796;2022-11-21T15:12:54;61.95;;;35.65;;
55202;SDS011;41077;52.956;6.796;2022-11-21T15:18:05;65.85;;;35.60;;
55202;SDS011;41077;52.956;6.796;2022-11-21T15:20:36;78.60;;;40.38;;
55202;SDS011;41077;52.956;6.796;2022-11-21T15:23:02;70.65;;;38.30;;
55202;SDS011;41077;52.956;6.796;2022-11-21T15:25:30;75.13;;;35.38;;
55202;SDS011;41077;52.956;6.796;2022-11-21T15:28:14;78.15;;;37.28;;
55202;SDS011;41077;52.956;6.796;2022-11-21T15:30:41;79.38;;;37.03;;
55202;SDS011;41077;52.956;6.796;2022-11-21T15:33:14;81.50;;;37.53;;
55202;SDS011;41077;52.956;6.796;2022-11-21T15:35:56;77.65;;;35.47;;
55202;SDS011;41077;52.956;6.796;2022-11-21T15:48:47;111.05;;;39.28;;
55202;SDS011;41077;52.956;6.796;2022-11-21T15:51:29;89.90;;;38.80;;
55202;SDS011;41077;52.956;6.796;2022-11-21T15:54:01;90.57;;;38.15;;
55202;SDS011;41077;52.956;6.796;2022-11-21T15:56:27;107.15;;;40.05;;
55202;SDS011;41077;52.956;6.796;2022-11-21T15:58:53;114.13;;;40.67;;
55202;SDS011;41077;52.956;6.796;2022-11-21T16:01:22;121.25;;;44.15;;
55202;SDS011;41077;52.956;6.796;2022-11-21T16:03:50;107.30;;;42.08;;
55202;SDS011;41077;52.956;6.796;2022-11-21T16:06:17;89.35;;;38.85;;
55202;SDS011;41077;52.956;6.796;2022-11-21T16:08:44;125.97;;;43.58;;
55202;SDS011;41077;52.956;6.796;2022-11-21T16:11:17;121.85;;;44.20;;
55202;SDS011;41077;52.956;6.796;2022-11-21T16:13:50;122.80;;;43.00;;
55202;SDS011;41077;52.956;6.796;2022-11-21T16:16:17;127.82;;;44.67;;
55202;SDS011;41077;52.956;6.796;2022-11-21T16:18:44;119.22;;;43.97;;
55202;SDS011;41077;52.956;6.796;2022-11-21T16:21:10;151.50;;;50.20;;
55202;SDS011;41077;52.956;6.796;2022-11-21T16:23:36;131.60;;;51.15;;
55202;SDS011;41077;52.956;6.796;2022-11-21T16:26:02;154.15;;;48.63;;
55202;SDS011;41077;52.956;6.796;2022-11-21T16:28:29;159.55;;;49.65;;
55202;SDS011;41077;52.956;6.796;2022-11-21T16:30:56;254.68;;;53.72;;
55202;SDS011;41077;52.956;6.796;2022-11-21T16:33:22;154.73;;;46.03;;
55202;SDS011;41077;52.956;6.796;2022-11-21T16:35:49;201.27;;;54.30;;
55202;SDS011;41077;52.956;6.796;2022-11-21T16:38:20;167.10;;;48.20;;
55202;SDS011;41077;52.956;6.796;2022-11-21T16:43:20;189.88;;;49.63;;
55202;SDS011;41077;52.956;6.796;2022-11-21T16:45:45;122.90;;;43.85;;
55202;SDS011;41077;52.956;6.796;2022-11-21T16:48:11;174.10;;;47.35;;
55202;SDS011;41077;52.956;6.796;2022-11-21T16:50:37;137.60;;;47.40;;
55202;SDS011;41077;52.956;6.796;2022-11-21T16:53:03;140.43;;;47.33;;
55202;SDS011;41077;52.956;6.796;2022-11-21T16:55:28;165.57;;;49.47;;
55202;SDS011;41077;52.956;6.796;2022-11-21T16:57:57;161.45;;;48.47;;
55202;SDS011;41077;52.956;6.796;2022-11-21T17:00:23;201.77;;;49.55;;
55202;SDS011;41077;52.956;6.796;2022-11-21T17:02:51;165.60;;;51.85;;